Portada
METAR-TAF:

METAR-TAF

Aeroports :

Txeliàbinsk, Rússia

latitud: 55-10N, longitud: 061-24E, altitud: 234 m

Observació

L'informe es va fer fa 38 minuts, a les 03:00 UTC
Vent 6 kt del Sud-Est
Temperatura -13°C
Humitat 85%
Pressió 1027 hPa
Visibilitat: 5000 m
boirina, fum

METAR: USCC 240300Z 13003MPS 5000 BR FU NSC M13/M15 Q1027 R09/150050 NOSIG RMK QFE749

Hora: 08:38 (03:38 UTC)

Pronòstic

L'informe es va fer fa 1 hora i 38 minuts, a les 02:00 UTC
Pronòstic vàlid del 24 a les 03 UTC al 25 a les 03 UTC
Vent 6 kt del Sud/Sud-Est amb ràfegues de 16 kt
Visibilitat: 6000 m
Temporalment
l' 24 a les 03 UTC al 24 a les 12 UTC
Vent 10 kt del Sud amb ràfegues de 23 kt
Núvols disperses a una alçada de 2000 ft

TAF: USCC 240200Z 2403/2503 16003G08MPS 6000 NSC TEMPO 2403/2412 18005G12MPS SCT020

Observacions i pronòstics meteorològics de més de 4000 aeroports (METAR i TAF).

Les estacions disponibles són els punts grocs i vermells al mapa.

Posi el ratolí al punt desitjat per veure el nom de l'estació.

Feu clic per veure les observacions i els pronòstics meteorològics.

Per canviar el mapa: feu clic els botons verds amb una creu de color negre per apropar; al botó verd amb un guió per allunyar la imatge; o en les fletxes verdes per a mapes adjacents.


METAR-TAF: